sensor_id;sensor_type;location;lat;lon;timestamp;P1;durP1;ratioP1;P2;durP2;ratioP2
24961;SDS011;12992;50.884;13.668;2023-11-21T00:01:15;3.67;;;0.57;;
24961;SDS011;12992;50.884;13.668;2023-11-21T00:03:40;0.30;;;0.30;;
24961;SDS011;12992;50.884;13.668;2023-11-21T00:06:06;0.63;;;0.47;;
24961;SDS011;12992;50.884;13.668;2023-11-21T00:08:34;0.20;;;0.20;;
24961;SDS011;12992;50.884;13.668;2023-11-21T00:11:00;1.02;;;0.80;;
24961;SDS011;12992;50.884;13.668;2023-11-21T00:13:25;0.65;;;0.65;;
24961;SDS011;12992;50.884;13.668;2023-11-21T00:15:51;0.40;;;0.40;;
24961;SDS011;12992;50.884;13.668;2023-11-21T00:18:16;0.90;;;0.75;;
24961;SDS011;12992;50.884;13.668;2023-11-21T00:20:41;0.25;;;0.25;;
24961;SDS011;12992;50.884;13.668;2023-11-21T00:23:07;1.05;;;0.50;;
24961;SDS011;12992;50.884;13.668;2023-11-21T00:25:32;0.70;;;0.70;;
24961;SDS011;12992;50.884;13.668;2023-11-21T00:27:58;2.30;;;0.93;;
24961;SDS011;12992;50.884;13.668;2023-11-21T00:30:23;1.10;;;0.80;;
24961;SDS011;12992;50.884;13.668;2023-11-21T00:32:48;1.90;;;1.23;;
24961;SDS011;12992;50.884;13.668;2023-11-21T00:35:14;0.38;;;0.38;;
24961;SDS011;12992;50.884;13.668;2023-11-21T00:37:39;2.03;;;1.17;;
24961;SDS011;12992;50.884;13.668;2023-11-21T00:40:05;1.05;;;0.75;;
24961;SDS011;12992;50.884;13.668;2023-11-21T00:42:32;0.77;;;0.75;;
24961;SDS011;12992;50.884;13.668;2023-11-21T00:44:59;0.95;;;0.95;;
24961;SDS011;12992;50.884;13.668;2023-11-21T00:47:24;1.10;;;0.75;;
24961;SDS011;12992;50.884;13.668;2023-11-21T00:49:49;1.13;;;1.02;;
24961;SDS011;12992;50.884;13.668;2023-11-21T00:52:15;1.20;;;0.88;;
24961;SDS011;12992;50.884;13.668;2023-11-21T00:54:41;1.02;;;0.95;;
24961;SDS011;12992;50.884;13.668;2023-11-21T00:57:07;0.60;;;0.60;;
24961;SDS011;12992;50.884;13.668;2023-11-21T00:59:33;1.25;;;1.05;;
24961;SDS011;12992;50.884;13.668;2023-11-21T01:01:59;0.82;;;0.80;;
24961;SDS011;12992;50.884;13.668;2023-11-21T01:04:26;2.38;;;1.40;;
24961;SDS011;12992;50.884;13.668;2023-11-21T01:06:53;1.58;;;1.00;;
24961;SDS011;12992;50.884;13.668;2023-11-21T01:09:18;1.10;;;0.90;;
24961;SDS011;12992;50.884;13.668;2023-11-21T01:11:44;0.63;;;0.63;;
24961;SDS011;12992;50.884;13.668;2023-11-21T01:14:09;0.50;;;0.50;;
24961;SDS011;12992;50.884;13.668;2023-11-21T01:16:35;0.70;;;0.70;;
24961;SDS011;12992;50.884;13.668;2023-11-21T01:19:02;3.22;;;0.82;;
24961;SDS011;12992;50.884;13.668;2023-11-21T01:21:29;1.23;;;0.73;;
24961;SDS011;12992;50.884;13.668;2023-11-21T01:23:56;0.52;;;0.52;;
24961;SDS011;12992;50.884;13.668;2023-11-21T01:26:21;0.88;;;0.75;;
24961;SDS011;12992;50.884;13.668;2023-11-21T01:28:46;1.77;;;0.73;;
24961;SDS011;12992;50.884;13.668;2023-11-21T01:31:14;0.68;;;0.55;;
24961;SDS011;12992;50.884;13.668;2023-11-21T01:33:40;2.15;;;0.70;;
24961;SDS011;12992;50.884;13.668;2023-11-21T01:36:06;1.17;;;1.08;;
24961;SDS011;12992;50.884;13.668;2023-11-21T01:38:32;1.20;;;1.10;;
24961;SDS011;12992;50.884;13.668;2023-11-21T01:40:59;2.03;;;0.90;;
24961;SDS011;12992;50.884;13.668;2023-11-21T01:43:26;0.60;;;0.60;;
24961;SDS011;12992;50.884;13.668;2023-11-21T01:45:51;0.85;;;0.80;;
24961;SDS011;12992;50.884;13.668;2023-11-21T01:48:19;0.70;;;0.40;;
24961;SDS011;12992;50.884;13.668;2023-11-21T01:50:46;2.45;;;0.90;;
24961;SDS011;12992;50.884;13.668;2023-11-21T01:53:12;1.00;;;0.90;;
24961;SDS011;12992;50.884;13.668;2023-11-21T01:55:38;1.10;;;0.95;;
24961;SDS011;12992;50.884;13.668;2023-11-21T01:58:06;2.42;;;1.88;;
24961;SDS011;12992;50.884;13.668;2023-11-21T02:00:32;3.15;;;1.20;;
24961;SDS011;12992;50.884;13.668;2023-11-21T02:02:58;1.73;;;1.52;;
24961;SDS011;12992;50.884;13.668;2023-11-21T02:05:24;2.17;;;1.45;;
24961;SDS011;12992;50.884;13.668;2023-11-21T02:07:51;1.27;;;0.60;;
24961;SDS011;12992;50.884;13.668;2023-11-21T02:10:17;1.00;;;1.00;;
24961;SDS011;12992;50.884;13.668;2023-11-21T02:12:47;4.88;;;1.50;;
24961;SDS011;12992;50.884;13.668;2023-11-21T02:15:16;1.52;;;0.85;;
24961;SDS011;12992;50.884;13.668;2023-11-21T02:17:45;1.63;;;0.90;;
24961;SDS011;12992;50.884;13.668;2023-11-21T02:20:19;0.63;;;0.60;;
24961;SDS011;12992;50.884;13.668;2023-11-21T02:22:50;1.95;;;0.95;;
24961;SDS011;12992;50.884;13.668;2023-11-21T02:25:23;3.13;;;1.13;;
24961;SDS011;12992;50.884;13.668;2023-11-21T02:30:21;1.33;;;1.02;;
24961;SDS011;12992;50.884;13.668;2023-11-21T02:32:48;1.08;;;0.98;;
24961;SDS011;12992;50.884;13.668;2023-11-21T02:35:14;1.42;;;0.82;;
24961;SDS011;12992;50.884;13.668;2023-11-21T02:37:41;2.13;;;0.68;;
24961;SDS011;12992;50.884;13.668;2023-11-21T02:40:08;0.45;;;0.43;;
24961;SDS011;12992;50.884;13.668;2023-11-21T02:42:34;1.15;;;1.05;;
24961;SDS011;12992;50.884;13.668;2023-11-21T02:45:00;1.52;;;0.63;;
24961;SDS011;12992;50.884;13.668;2023-11-21T02:47:25;0.90;;;0.90;;
24961;SDS011;12992;50.884;13.668;2023-11-21T02:49:51;1.00;;;0.88;;
24961;SDS011;12992;50.884;13.668;2023-11-21T02:52:17;2.58;;;0.95;;
24961;SDS011;12992;50.884;13.668;2023-11-21T02:54:44;1.02;;;0.88;;
24961;SDS011;12992;50.884;13.668;2023-11-21T02:57:09;1.75;;;1.10;;
24961;SDS011;12992;50.884;13.668;2023-11-21T02:59:35;1.08;;;0.82;;
24961;SDS011;12992;50.884;13.668;2023-11-21T03:02:00;2.25;;;1.05;;
24961;SDS011;12992;50.884;13.668;2023-11-21T03:04:26;2.38;;;1.35;;
24961;SDS011;12992;50.884;13.668;2023-11-21T03:06:52;0.77;;;0.65;;
24961;SDS011;12992;50.884;13.668;2023-11-21T03:09:17;3.80;;;1.08;;
24961;SDS011;12992;50.884;13.668;2023-11-21T03:11:43;0.95;;;0.82;;
24961;SDS011;12992;50.884;13.668;2023-11-21T03:14:08;4.72;;;1.05;;
24961;SDS011;12992;50.884;13.668;2023-11-21T03:16:33;0.73;;;0.60;;
24961;SDS011;12992;50.884;13.668;2023-11-21T03:18:59;0.77;;;0.77;;
24961;SDS011;12992;50.884;13.668;2023-11-21T03:21:25;1.90;;;1.13;;
24961;SDS011;12992;50.884;13.668;2023-11-21T03:23:51;1.30;;;1.02;;
24961;SDS011;12992;50.884;13.668;2023-11-21T03:26:17;1.67;;;1.13;;
24961;SDS011;12992;50.884;13.668;2023-11-21T03:28:43;1.10;;;1.02;;
24961;SDS011;12992;50.884;13.668;2023-11-21T03:31:08;1.23;;;0.98;;
24961;SDS011;12992;50.884;13.668;2023-11-21T03:33:34;0.82;;;0.80;;
24961;SDS011;12992;50.884;13.668;2023-11-21T03:36:00;0.82;;;0.82;;
24961;SDS011;12992;50.884;13.668;2023-11-21T03:38:25;1.60;;;0.77;;
24961;SDS011;12992;50.884;13.668;2023-11-21T03:40:51;0.70;;;0.70;;
24961;SDS011;12992;50.884;13.668;2023-11-21T03:43:16;2.13;;;1.33;;
24961;SDS011;12992;50.884;13.668;2023-11-21T03:45:41;0.73;;;0.73;;
24961;SDS011;12992;50.884;13.668;2023-11-21T03:48:07;1.27;;;0.80;;
24961;SDS011;12992;50.884;13.668;2023-11-21T03:50:36;1.08;;;0.98;;
24961;SDS011;12992;50.884;13.668;2023-11-21T03:53:01;2.05;;;1.13;;
24961;SDS011;12992;50.884;13.668;2023-11-21T03:55:29;1.08;;;0.95;;
24961;SDS011;12992;50.884;13.668;2023-11-21T03:57:56;1.60;;;1.02;;
24961;SDS011;12992;50.884;13.668;2023-11-21T04:00:22;1.10;;;0.90;;
24961;SDS011;12992;50.884;13.668;2023-11-21T04:02:47;1.65;;;1.08;;
24961;SDS011;12992;50.884;13.668;2023-11-21T04:05:12;2.85;;;1.25;;
24961;SDS011;12992;50.884;13.668;2023-11-21T04:07:38;1.17;;;1.08;;
24961;SDS011;12992;50.884;13.668;2023-11-21T04:10:07;4.97;;;1.70;;
24961;SDS011;12992;50.884;13.668;2023-11-21T04:12:34;5.75;;;1.10;;
24961;SDS011;12992;50.884;13.668;2023-11-21T04:15:00;2.17;;;1.00;;
24961;SDS011;12992;50.884;13.668;2023-11-21T04:17:25;1.33;;;1.20;;
24961;SDS011;12992;50.884;13.668;2023-11-21T04:19:50;1.15;;;1.00;;
24961;SDS011;12992;50.884;13.668;2023-11-21T04:22:16;4.05;;;0.90;;
24961;SDS011;12992;50.884;13.668;2023-11-21T04:24:41;1.33;;;1.13;;
24961;SDS011;12992;50.884;13.668;2023-11-21T04:27:06;1.48;;;1.23;;
24961;SDS011;12992;50.884;13.668;2023-11-21T04:29:32;4.00;;;1.02;;
24961;SDS011;12992;50.884;13.668;2023-11-21T04:31:58;0.65;;;0.65;;
24961;SDS011;12992;50.884;13.668;2023-11-21T04:34:23;1.65;;;0.90;;
24961;SDS011;12992;50.884;13.668;2023-11-21T04:36:49;1.45;;;1.00;;
24961;SDS011;12992;50.884;13.668;2023-11-21T04:39:15;1.15;;;1.05;;
24961;SDS011;12992;50.884;13.668;2023-11-21T04:41:40;1.08;;;0.90;;
24961;SDS011;12992;50.884;13.668;2023-11-21T04:44:06;1.58;;;1.30;;
24961;SDS011;12992;50.884;13.668;2023-11-21T04:46:31;1.10;;;0.77;;
24961;SDS011;12992;50.884;13.668;2023-11-21T04:48:57;0.88;;;0.82;;
24961;SDS011;12992;50.884;13.668;2023-11-21T04:51:23;3.42;;;1.38;;
24961;SDS011;12992;50.884;13.668;2023-11-21T04:53:49;1.83;;;1.50;;
24961;SDS011;12992;50.884;13.668;2023-11-21T04:56:14;1.13;;;1.02;;
24961;SDS011;12992;50.884;13.668;2023-11-21T04:58:41;1.23;;;0.77;;
24961;SDS011;12992;50.884;13.668;2023-11-21T05:01:09;3.00;;;1.85;;
24961;SDS011;12992;50.884;13.668;2023-11-21T05:03:34;8.02;;;1.60;;
24961;SDS011;12992;50.884;13.668;2023-11-21T05:06:00;0.80;;;0.80;;
24961;SDS011;12992;50.884;13.668;2023-11-21T05:08:25;0.88;;;0.80;;
24961;SDS011;12992;50.884;13.668;2023-11-21T05:10:51;2.58;;;1.25;;
24961;SDS011;12992;50.884;13.668;2023-11-21T05:13:18;1.63;;;1.05;;
24961;SDS011;12992;50.884;13.668;2023-11-21T05:15:45;4.20;;;1.10;;
24961;SDS011;12992;50.884;13.668;2023-11-21T05:18:10;2.03;;;1.27;;
24961;SDS011;12992;50.884;13.668;2023-11-21T05:20:36;1.25;;;1.13;;
24961;SDS011;12992;50.884;13.668;2023-11-21T05:23:02;1.33;;;1.15;;
24961;SDS011;12992;50.884;13.668;2023-11-21T05:25:27;4.82;;;2.10;;
24961;SDS011;12992;50.884;13.668;2023-11-21T05:27:52;1.58;;;1.48;;
24961;SDS011;12992;50.884;13.668;2023-11-21T05:30:19;1.75;;;1.20;;
24961;SDS011;12992;50.884;13.668;2023-11-21T05:32:46;1.40;;;1.30;;
24961;SDS011;12992;50.884;13.668;2023-11-21T05:35:11;1.98;;;0.85;;
24961;SDS011;12992;50.884;13.668;2023-11-21T05:37:40;1.02;;;0.73;;
24961;SDS011;12992;50.884;13.668;2023-11-21T05:40:06;1.40;;;1.30;;
24961;SDS011;12992;50.884;13.668;2023-11-21T05:42:33;1.52;;;1.20;;
24961;SDS011;12992;50.884;13.668;2023-11-21T05:44:59;2.72;;;1.65;;
24961;SDS011;12992;50.884;13.668;2023-11-21T05:47:34;2.22;;;1.63;;
24961;SDS011;12992;50.884;13.668;2023-11-21T05:50:00;5.38;;;1.40;;
24961;SDS011;12992;50.884;13.668;2023-11-21T05:52:26;1.08;;;0.98;;
24961;SDS011;12992;50.884;13.668;2023-11-21T05:54:51;2.78;;;1.00;;
24961;SDS011;12992;50.884;13.668;2023-11-21T05:57:16;1.60;;;1.05;;
24961;SDS011;12992;50.884;13.668;2023-11-21T05:59:42;1.52;;;1.42;;
24961;SDS011;12992;50.884;13.668;2023-11-21T06:02:07;1.60;;;1.20;;
24961;SDS011;12992;50.884;13.668;2023-11-21T06:04:32;1.92;;;1.60;;
24961;SDS011;12992;50.884;13.668;2023-11-21T06:06:58;3.75;;;1.02;;
24961;SDS011;12992;50.884;13.668;2023-11-21T06:09:23;1.67;;;1.30;;
24961;SDS011;12992;50.884;13.668;2023-11-21T06:11:50;1.80;;;1.13;;
24961;SDS011;12992;50.884;13.668;2023-11-21T06:14:15;2.17;;;1.42;;
24961;SDS011;12992;50.884;13.668;2023-11-21T06:16:42;1.80;;;1.50;;
24961;SDS011;12992;50.884;13.668;2023-11-21T06:19:10;2.08;;;1.70;;
24961;SDS011;12992;50.884;13.668;2023-11-21T06:21:35;1.40;;;1.30;;
24961;SDS011;12992;50.884;13.668;2023-11-21T06:24:01;1.80;;;1.48;;
24961;SDS011;12992;50.884;13.668;2023-11-21T06:26:26;1.08;;;1.00;;
24961;SDS011;12992;50.884;13.668;2023-11-21T06:28:52;3.40;;;1.75;;
24961;SDS011;12992;50.884;13.668;2023-11-21T06:31:17;2.38;;;1.85;;
24961;SDS011;12992;50.884;13.668;2023-11-21T06:33:43;1.83;;;1.30;;
24961;SDS011;12992;50.884;13.668;2023-11-21T06:36:08;4.13;;;1.73;;
24961;SDS011;12992;50.884;13.668;2023-11-21T06:38:36;5.30;;;1.77;;
24961;SDS011;12992;50.884;13.668;2023-11-21T06:41:02;1.80;;;1.58;;
24961;SDS011;12992;50.884;13.668;2023-11-21T06:43:27;7.28;;;2.20;;
24961;SDS011;12992;50.884;13.668;2023-11-21T06:45:52;2.05;;;1.60;;
24961;SDS011;12992;50.884;13.668;2023-11-21T06:48:18;2.33;;;1.70;;
24961;SDS011;12992;50.884;13.668;2023-11-21T06:50:43;1.60;;;1.40;;
24961;SDS011;12992;50.884;13.668;2023-11-21T06:53:09;2.17;;;1.38;;
24961;SDS011;12992;50.884;13.668;2023-11-21T06:55:34;1.75;;;1.55;;
24961;SDS011;12992;50.884;13.668;2023-11-21T06:58:00;6.70;;;2.17;;
24961;SDS011;12992;50.884;13.668;2023-11-21T07:00:25;4.72;;;1.83;;
24961;SDS011;12992;50.884;13.668;2023-11-21T07:02:53;3.38;;;2.30;;
24961;SDS011;12992;50.884;13.668;2023-11-21T07:05:20;2.00;;;1.45;;
24961;SDS011;12992;50.884;13.668;2023-11-21T07:07:46;2.88;;;1.75;;
24961;SDS011;12992;50.884;13.668;2023-11-21T07:10:13;3.35;;;1.95;;
24961;SDS011;12992;50.884;13.668;2023-11-21T07:12:38;3.03;;;1.80;;
24961;SDS011;12992;50.884;13.668;2023-11-21T07:15:05;5.70;;;1.92;;
24961;SDS011;12992;50.884;13.668;2023-11-21T07:17:34;3.17;;;1.48;;
24961;SDS011;12992;50.884;13.668;2023-11-21T07:20:00;2.40;;;1.48;;
24961;SDS011;12992;50.884;13.668;2023-11-21T07:22:26;3.55;;;1.85;;
24961;SDS011;12992;50.884;13.668;2023-11-21T07:24:51;2.90;;;1.50;;
24961;SDS011;12992;50.884;13.668;2023-11-21T07:27:17;2.22;;;1.48;;
24961;SDS011;12992;50.884;13.668;2023-11-21T07:29:42;2.35;;;1.58;;
24961;SDS011;12992;50.884;13.668;2023-11-21T07:32:07;1.98;;;1.42;;
24961;SDS011;12992;50.884;13.668;2023-11-21T07:34:34;1.70;;;1.45;;
24961;SDS011;12992;50.884;13.668;2023-11-21T07:37:00;2.83;;;1.85;;
24961;SDS011;12992;50.884;13.668;2023-11-21T07:39:25;2.13;;;1.58;;
24961;SDS011;12992;50.884;13.668;2023-11-21T07:41:50;1.58;;;1.30;;
24961;SDS011;12992;50.884;13.668;2023-11-21T07:44:16;1.95;;;1.70;;
24961;SDS011;12992;50.884;13.668;2023-11-21T07:46:42;1.85;;;1.13;;
24961;SDS011;12992;50.884;13.668;2023-11-21T07:49:08;2.72;;;1.80;;
24961;SDS011;12992;50.884;13.668;2023-11-21T07:51:34;7.57;;;2.22;;
24961;SDS011;12992;50.884;13.668;2023-11-21T07:53:59;3.97;;;2.25;;
24961;SDS011;12992;50.884;13.668;2023-11-21T07:56:25;2.60;;;1.52;;
24961;SDS011;12992;50.884;13.668;2023-11-21T07:58:51;2.55;;;2.00;;
24961;SDS011;12992;50.884;13.668;2023-11-21T08:01:16;3.13;;;1.63;;
24961;SDS011;12992;50.884;13.668;2023-11-21T08:03:41;3.30;;;1.85;;
24961;SDS011;12992;50.884;13.668;2023-11-21T08:06:07;6.55;;;2.83;;
24961;SDS011;12992;50.884;13.668;2023-11-21T08:08:33;2.13;;;1.67;;
24961;SDS011;12992;50.884;13.668;2023-11-21T08:10:59;4.15;;;1.73;;
24961;SDS011;12992;50.884;13.668;2023-11-21T08:13:27;2.22;;;1.15;;
24961;SDS011;12992;50.884;13.668;2023-11-21T08:15:53;2.15;;;1.80;;
24961;SDS011;12992;50.884;13.668;2023-11-21T08:18:19;4.03;;;2.13;;
24961;SDS011;12992;50.884;13.668;2023-11-21T08:20:45;3.13;;;2.10;;
24961;SDS011;12992;50.884;13.668;2023-11-21T08:23:16;5.68;;;2.22;;
24961;SDS011;12992;50.884;13.668;2023-11-21T08:25:45;3.22;;;1.85;;
24961;SDS011;12992;50.884;13.668;2023-11-21T08:28:11;3.15;;;1.90;;
24961;SDS011;12992;50.884;13.668;2023-11-21T08:30:36;2.05;;;1.80;;
24961;SDS011;12992;50.884;13.668;2023-11-21T08:33:02;3.60;;;2.25;;
24961;SDS011;12992;50.884;13.668;2023-11-21T08:35:28;2.85;;;2.40;;
24961;SDS011;12992;50.884;13.668;2023-11-21T08:37:54;7.28;;;2.20;;
24961;SDS011;12992;50.884;13.668;2023-11-21T08:40:20;2.13;;;1.52;;
24961;SDS011;12992;50.884;13.668;2023-11-21T08:42:46;2.88;;;1.58;;
24961;SDS011;12992;50.884;13.668;2023-11-21T08:45:13;2.58;;;1.50;;
24961;SDS011;12992;50.884;13.668;2023-11-21T08:47:42;2.42;;;1.90;;
24961;SDS011;12992;50.884;13.668;2023-11-21T08:50:09;3.20;;;1.85;;
24961;SDS011;12992;50.884;13.668;2023-11-21T08:52:35;3.63;;;2.08;;
24961;SDS011;12992;50.884;13.668;2023-11-21T08:55:02;2.53;;;1.92;;
24961;SDS011;12992;50.884;13.668;2023-11-21T08:57:33;4.35;;;2.90;;
24961;SDS011;12992;50.884;13.668;2023-11-21T08:59:58;2.65;;;1.90;;
24961;SDS011;12992;50.884;13.668;2023-11-21T09:02:27;4.75;;;1.88;;
24961;SDS011;12992;50.884;13.668;2023-11-21T09:04:52;5.53;;;2.45;;
24961;SDS011;12992;50.884;13.668;2023-11-21T09:07:18;2.40;;;1.55;;
24961;SDS011;12992;50.884;13.668;2023-11-21T09:09:45;2.83;;;2.08;;
24961;SDS011;12992;50.884;13.668;2023-11-21T09:12:11;2.28;;;1.73;;
24961;SDS011;12992;50.884;13.668;2023-11-21T09:14:37;1.33;;;1.20;;
24961;SDS011;12992;50.884;13.668;2023-11-21T09:17:04;2.03;;;1.40;;
24961;SDS011;12992;50.884;13.668;2023-11-21T09:19:29;2.03;;;1.08;;
24961;SDS011;12992;50.884;13.668;2023-11-21T09:21:54;2.50;;;1.80;;
24961;SDS011;12992;50.884;13.668;2023-11-21T09:24:22;1.80;;;1.35;;
24961;SDS011;12992;50.884;13.668;2023-11-21T09:26:47;1.98;;;1.38;;
24961;SDS011;12992;50.884;13.668;2023-11-21T09:29:12;3.70;;;2.33;;
24961;SDS011;12992;50.884;13.668;2023-11-21T09:31:38;3.42;;;1.70;;
24961;SDS011;12992;50.884;13.668;2023-11-21T09:34:03;2.22;;;1.23;;
24961;SDS011;12992;50.884;13.668;2023-11-21T09:36:29;1.90;;;1.70;;
24961;SDS011;12992;50.884;13.668;2023-11-21T09:38:55;1.95;;;1.48;;
24961;SDS011;12992;50.884;13.668;2023-11-21T09:41:23;2.92;;;1.50;;
24961;SDS011;12992;50.884;13.668;2023-11-21T09:44:00;2.03;;;1.55;;
24961;SDS011;12992;50.884;13.668;2023-11-21T09:46:32;2.13;;;1.67;;
24961;SDS011;12992;50.884;13.668;2023-11-21T09:48:58;5.65;;;2.40;;
24961;SDS011;12992;50.884;13.668;2023-11-21T09:51:27;4.20;;;2.05;;
24961;SDS011;12992;50.884;13.668;2023-11-21T09:53:55;1.30;;;0.98;;
24961;SDS011;12992;50.884;13.668;2023-11-21T09:56:24;1.33;;;1.20;;
24961;SDS011;12992;50.884;13.668;2023-11-21T09:58:52;1.30;;;1.10;;
24961;SDS011;12992;50.884;13.668;2023-11-21T10:01:18;1.88;;;1.60;;
24961;SDS011;12992;50.884;13.668;2023-11-21T10:03:45;1.80;;;1.63;;
24961;SDS011;12992;50.884;13.668;2023-11-21T10:06:12;1.38;;;1.27;;
24961;SDS011;12992;50.884;13.668;2023-11-21T10:08:39;1.20;;;1.10;;
24961;SDS011;12992;50.884;13.668;2023-11-21T10:11:05;1.33;;;1.02;;
24961;SDS011;12992;50.884;13.668;2023-11-21T10:13:33;1.17;;;0.90;;
24961;SDS011;12992;50.884;13.668;2023-11-21T10:16:00;4.95;;;1.67;;
24961;SDS011;12992;50.884;13.668;2023-11-21T10:18:30;3.22;;;1.13;;
24961;SDS011;12992;50.884;13.668;2023-11-21T10:20:59;2.65;;;1.38;;
24961;SDS011;12992;50.884;13.668;2023-11-21T10:23:25;1.25;;;1.05;;
24961;SDS011;12992;50.884;13.668;2023-11-21T10:25:53;0.65;;;0.65;;
24961;SDS011;12992;50.884;13.668;2023-11-21T10:28:20;1.50;;;1.40;;
24961;SDS011;12992;50.884;13.668;2023-11-21T10:30:45;0.82;;;0.82;;
24961;SDS011;12992;50.884;13.668;2023-11-21T10:33:11;1.55;;;1.27;;
24961;SDS011;12992;50.884;13.668;2023-11-21T10:35:47;2.40;;;2.05;;
24961;SDS011;12992;50.884;13.668;2023-11-21T10:38:18;0.80;;;0.60;;
24961;SDS011;12992;50.884;13.668;2023-11-21T10:40:46;0.60;;;0.60;;
24961;SDS011;12992;50.884;13.668;2023-11-21T10:43:12;1.27;;;0.77;;
24961;SDS011;12992;50.884;13.668;2023-11-21T10:45:40;0.65;;;0.60;;
24961;SDS011;12992;50.884;13.668;2023-11-21T10:48:06;0.38;;;0.38;;
24961;SDS011;12992;50.884;13.668;2023-11-21T10:50:41;0.80;;;0.80;;
24961;SDS011;12992;50.884;13.668;2023-11-21T10:53:08;2.78;;;1.88;;
24961;SDS011;12992;50.884;13.668;2023-11-21T10:55:33;0.43;;;0.43;;
24961;SDS011;12992;50.884;13.668;2023-11-21T10:58:00;0.82;;;0.82;;
24961;SDS011;12992;50.884;13.668;2023-11-21T11:00:28;4.22;;;3.60;;
24961;SDS011;12992;50.884;13.668;2023-11-21T11:02:54;3.53;;;1.95;;
24961;SDS011;12992;50.884;13.668;2023-11-21T11:05:20;1.40;;;0.95;;
24961;SDS011;12992;50.884;13.668;2023-11-21T11:07:50;0.95;;;0.68;;
24961;SDS011;12992;50.884;13.668;2023-11-21T11:10:20;1.27;;;1.17;;
24961;SDS011;12992;50.884;13.668;2023-11-21T11:12:47;1.10;;;1.00;;
24961;SDS011;12992;50.884;13.668;2023-11-21T11:15:13;1.95;;;1.20;;
24961;SDS011;12992;50.884;13.668;2023-11-21T11:17:40;0.75;;;0.75;;
24961;SDS011;12992;50.884;13.668;2023-11-21T11:20:07;1.48;;;1.30;;
24961;SDS011;12992;50.884;13.668;2023-11-21T11:22:44;2.33;;;1.38;;
24961;SDS011;12992;50.884;13.668;2023-11-21T11:33:39;0.43;;;0.43;;
24961;SDS011;12992;50.884;13.668;2023-11-21T11:36:22;1.10;;;1.00;;
24961;SDS011;12992;50.884;13.668;2023-11-21T11:39:27;2.72;;;1.60;;
24961;SDS011;12992;50.884;13.668;2023-11-21T11:41:57;2.15;;;1.48;;
24961;SDS011;12992;50.884;13.668;2023-11-21T11:49:56;3.38;;;2.08;;
24961;SDS011;12992;50.884;13.668;2023-11-21T11:55:00;2.78;;;1.45;;
24961;SDS011;12992;50.884;13.668;2023-11-21T11:57:29;1.40;;;1.30;;
24961;SDS011;12992;50.884;13.668;2023-11-21T12:00:07;2.42;;;1.48;;
24961;SDS011;12992;50.884;13.668;2023-11-21T12:02:36;1.77;;;1.50;;
24961;SDS011;12992;50.884;13.668;2023-11-21T12:05:06;2.03;;;1.50;;
24961;SDS011;12992;50.884;13.668;2023-11-21T12:07:47;2.42;;;1.30;;
24961;SDS011;12992;50.884;13.668;2023-11-21T12:10:19;3.13;;;1.38;;
24961;SDS011;12992;50.884;13.668;2023-11-21T12:12:46;4.13;;;2.03;;
24961;SDS011;12992;50.884;13.668;2023-11-21T12:15:13;3.35;;;1.95;;
24961;SDS011;12992;50.884;13.668;2023-11-21T12:17:39;2.90;;;2.17;;
24961;SDS011;12992;50.884;13.668;2023-11-21T12:20:07;2.50;;;1.52;;
24961;SDS011;12992;50.884;13.668;2023-11-21T12:25:08;3.20;;;2.42;;
24961;SDS011;12992;50.884;13.668;2023-11-21T12:27:33;2.03;;;1.70;;
24961;SDS011;12992;50.884;13.668;2023-11-21T12:29:59;2.92;;;2.08;;
24961;SDS011;12992;50.884;13.668;2023-11-21T12:32:24;4.60;;;2.38;;
24961;SDS011;12992;50.884;13.668;2023-11-21T12:34:50;1.70;;;1.60;;
24961;SDS011;12992;50.884;13.668;2023-11-21T12:37:16;2.92;;;2.60;;
24961;SDS011;12992;50.884;13.668;2023-11-21T12:39:42;3.25;;;2.03;;
24961;SDS011;12992;50.884;13.668;2023-11-21T12:42:07;2.47;;;1.45;;
24961;SDS011;12992;50.884;13.668;2023-11-21T12:44:32;2.10;;;1.42;;
24961;SDS011;12992;50.884;13.668;2023-11-21T12:46:58;2.67;;;2.42;;
24961;SDS011;12992;50.884;13.668;2023-11-21T12:49:24;4.22;;;2.05;;
24961;SDS011;12992;50.884;13.668;2023-11-21T12:51:50;3.33;;;1.83;;
24961;SDS011;12992;50.884;13.668;2023-11-21T12:54:15;2.75;;;2.03;;
24961;SDS011;12992;50.884;13.668;2023-11-21T12:56:44;3.30;;;1.98;;
24961;SDS011;12992;50.884;13.668;2023-11-21T12:59:12;3.38;;;2.10;;
24961;SDS011;12992;50.884;13.668;2023-11-21T13:01:41;3.03;;;1.95;;
24961;SDS011;12992;50.884;13.668;2023-11-21T13:04:07;6.60;;;2.38;;
24961;SDS011;12992;50.884;13.668;2023-11-21T13:06:36;2.95;;;2.22;;
24961;SDS011;12992;50.884;13.668;2023-11-21T13:09:06;5.38;;;2.72;;
24961;SDS011;12992;50.884;13.668;2023-11-21T13:11:36;2.78;;;1.85;;
24961;SDS011;12992;50.884;13.668;2023-11-21T13:14:02;3.20;;;2.50;;
24961;SDS011;12992;50.884;13.668;2023-11-21T13:16:28;4.40;;;2.60;;
24961;SDS011;12992;50.884;13.668;2023-11-21T13:18:55;5.78;;;2.53;;
24961;SDS011;12992;50.884;13.668;2023-11-21T13:21:21;2.70;;;1.73;;
24961;SDS011;12992;50.884;13.668;2023-11-21T13:23:47;4.05;;;2.35;;
24961;SDS011;12992;50.884;13.668;2023-11-21T13:26:15;5.43;;;3.20;;
24961;SDS011;12992;50.884;13.668;2023-11-21T13:28:40;2.63;;;1.85;;
24961;SDS011;12992;50.884;13.668;2023-11-21T13:31:10;4.22;;;2.08;;
24961;SDS011;12992;50.884;13.668;2023-11-21T13:33:46;1.45;;;1.02;;
24961;SDS011;12992;50.884;13.668;2023-11-21T13:36:24;1.85;;;1.33;;
24961;SDS011;12992;50.884;13.668;2023-11-21T13:38:50;4.55;;;1.52;;
24961;SDS011;12992;50.884;13.668;2023-11-21T13:41:17;4.15;;;1.42;;
24961;SDS011;12992;50.884;13.668;2023-11-21T13:43:43;3.38;;;1.38;;
24961;SDS011;12992;50.884;13.668;2023-11-21T13:46:17;2.42;;;1.20;;
24961;SDS011;12992;50.884;13.668;2023-11-21T13:48:47;1.40;;;1.30;;
24961;SDS011;12992;50.884;13.668;2023-11-21T13:51:20;1.33;;;0.80;;
24961;SDS011;12992;50.884;13.668;2023-11-21T13:53:54;2.17;;;1.20;;
24961;SDS011;12992;50.884;13.668;2023-11-21T13:56:20;0.75;;;0.63;;
24961;SDS011;12992;50.884;13.668;2023-11-21T13:58:49;2.30;;;1.27;;
24961;SDS011;12992;50.884;13.668;2023-11-21T14:01:22;3.60;;;1.17;;
24961;SDS011;12992;50.884;13.668;2023-11-21T14:03:55;1.00;;;1.00;;
24961;SDS011;12992;50.884;13.668;2023-11-21T14:06:49;1.73;;;1.05;;
24961;SDS011;12992;50.884;13.668;2023-11-21T14:09:20;1.80;;;1.30;;
24961;SDS011;12992;50.884;13.668;2023-11-21T14:11:58;2.42;;;1.38;;
24961;SDS011;12992;50.884;13.668;2023-11-21T14:14:25;2.13;;;1.00;;
24961;SDS011;12992;50.884;13.668;2023-11-21T14:16:52;1.98;;;0.95;;
24961;SDS011;12992;50.884;13.668;2023-11-21T14:19:18;2.55;;;1.75;;
24961;SDS011;12992;50.884;13.668;2023-11-21T14:21:44;2.42;;;1.15;;
24961;SDS011;12992;50.884;13.668;2023-11-21T14:24:10;1.20;;;0.80;;
24961;SDS011;12992;50.884;13.668;2023-11-21T14:26:42;1.65;;;1.45;;
24961;SDS011;12992;50.884;13.668;2023-11-21T14:29:08;1.35;;;1.25;;
24961;SDS011;12992;50.884;13.668;2023-11-21T14:31:36;3.75;;;1.23;;
24961;SDS011;12992;50.884;13.668;2023-11-21T14:34:01;1.30;;;0.90;;
24961;SDS011;12992;50.884;13.668;2023-11-21T14:36:28;2.63;;;2.10;;
24961;SDS011;12992;50.884;13.668;2023-11-21T14:38:53;2.20;;;1.10;;
24961;SDS011;12992;50.884;13.668;2023-11-21T14:41:19;4.25;;;2.35;;
24961;SDS011;12992;50.884;13.668;2023-11-21T14:43:44;3.85;;;1.85;;
24961;SDS011;12992;50.884;13.668;2023-11-21T14:46:12;3.97;;;2.08;;
24961;SDS011;12992;50.884;13.668;2023-11-21T14:48:41;2.50;;;1.70;;
24961;SDS011;12992;50.884;13.668;2023-11-21T14:51:12;3.07;;;2.43;;
24961;SDS011;12992;50.884;13.668;2023-11-21T14:53:52;3.85;;;1.88;;